sensor_id;sensor_type;location;lat;lon;timestamp;pressure;altitude;pressure_sealevel;temperature;humidity
60101;BME280;45978;53.646;55.930;2022-08-05T00:00:42;100276.50;;;17.05;71.14
60101;BME280;45978;53.646;55.930;2022-08-05T00:01:43;100276.66;;;17.02;70.77
60101;BME280;45978;53.646;55.930;2022-08-05T00:02:45;100282.03;;;17.00;71.20
60101;BME280;45978;53.646;55.930;2022-08-05T00:03:47;100273.34;;;16.97;70.94
60101;BME280;45978;53.646;55.930;2022-08-05T00:04:49;100279.38;;;17.00;70.77
60101;BME280;45978;53.646;55.930;2022-08-05T00:05:50;100275.16;;;16.96;71.06
60101;BME280;45978;53.646;55.930;2022-08-05T00:06:51;100271.66;;;16.96;70.71
60101;BME280;45978;53.646;55.930;2022-08-05T00:07:52;100270.56;;;17.00;70.77
60101;BME280;45978;53.646;55.930;2022-08-05T00:08:53;100275.09;;;16.98;70.92
60101;BME280;45978;53.646;55.930;2022-08-05T00:09:54;100275.22;;;16.95;70.66
60101;BME280;45978;53.646;55.930;2022-08-05T00:11:00;100274.50;;;16.91;70.82
60101;BME280;45978;53.646;55.930;2022-08-05T00:12:01;100280.59;;;16.93;70.70
60101;BME280;45978;53.646;55.930;2022-08-05T00:13:03;100286.84;;;16.92;70.89
60101;BME280;45978;53.646;55.930;2022-08-05T00:14:04;100288.72;;;16.90;71.14
60101;BME280;45978;53.646;55.930;2022-08-05T00:15:05;100280.75;;;16.90;70.70
60101;BME280;45978;53.646;55.930;2022-08-05T00:16:09;100285.91;;;16.93;70.85
60101;BME280;45978;53.646;55.930;2022-08-05T00:17:10;100285.97;;;16.92;71.05
60101;BME280;45978;53.646;55.930;2022-08-05T00:18:12;100283.13;;;16.96;70.99
60101;BME280;45978;53.646;55.930;2022-08-05T00:19:13;100285.00;;;16.94;70.80
60101;BME280;45978;53.646;55.930;2022-08-05T00:20:15;100285.84;;;16.95;70.89
60101;BME280;45978;53.646;55.930;2022-08-05T00:21:17;100277.03;;;16.94;70.85
60101;BME280;45978;53.646;55.930;2022-08-05T00:22:18;100273.50;;;16.94;70.50
60101;BME280;45978;53.646;55.930;2022-08-05T00:23:20;100289.75;;;17.05;70.56
60101;BME280;45978;53.646;55.930;2022-08-05T00:24:21;100280.94;;;17.05;70.57
60101;BME280;45978;53.646;55.930;2022-08-05T00:25:22;100279.94;;;17.07;70.65
60101;BME280;45978;53.646;55.930;2022-08-05T00:26:23;100281.66;;;17.08;70.30
60101;BME280;45978;53.646;55.930;2022-08-05T00:27:25;100284.25;;;17.10;70.58
60101;BME280;45978;53.646;55.930;2022-08-05T00:28:26;100274.78;;;17.04;70.37
60101;BME280;45978;53.646;55.930;2022-08-05T00:29:27;100274.88;;;17.02;70.62
60101;BME280;45978;53.646;55.930;2022-08-05T00:30:28;100280.94;;;17.05;70.41
60101;BME280;45978;53.646;55.930;2022-08-05T00:31:29;100281.66;;;17.08;70.35
60101;BME280;45978;53.646;55.930;2022-08-05T00:32:31;100277.44;;;17.04;70.34
60101;BME280;45978;53.646;55.930;2022-08-05T00:33:33;100287.19;;;17.03;70.42
60101;BME280;45978;53.646;55.930;2022-08-05T00:34:38;100273.22;;;17.00;70.18
60101;BME280;45978;53.646;55.930;2022-08-05T00:35:40;100281.19;;;17.00;70.62
60101;BME280;45978;53.646;55.930;2022-08-05T00:36:41;100288.19;;;17.01;70.58
60101;BME280;45978;53.646;55.930;2022-08-05T00:37:42;100286.56;;;16.98;70.55
60101;BME280;45978;53.646;55.930;2022-08-05T00:38:43;100284.03;;;16.95;70.50
60101;BME280;45978;53.646;55.930;2022-08-05T00:39:44;100290.28;;;16.94;70.43
60101;BME280;45978;53.646;55.930;2022-08-05T00:40:48;100290.50;;;16.90;70.64
60101;BME280;45978;53.646;55.930;2022-08-05T00:41:50;100293.31;;;16.87;70.61
60101;BME280;45978;53.646;55.930;2022-08-05T00:42:52;100299.63;;;16.84;70.62
60101;BME280;45978;53.646;55.930;2022-08-05T00:43:53;100292.78;;;16.78;71.14
60101;BME280;45978;53.646;55.930;2022-08-05T00:44:54;100292.84;;;16.77;70.77
60101;BME280;45978;53.646;55.930;2022-08-05T00:45:56;100295.50;;;16.77;71.10
60101;BME280;45978;53.646;55.930;2022-08-05T00:46:57;100303.53;;;16.75;71.18
60101;BME280;45978;53.646;55.930;2022-08-05T00:47:59;100294.84;;;16.72;71.25
60101;BME280;45978;53.646;55.930;2022-08-05T00:49:00;100302.72;;;16.73;71.04
60101;BME280;45978;53.646;55.930;2022-08-05T00:50:01;100299.28;;;16.71;71.18
60101;BME280;45978;53.646;55.930;2022-08-05T00:51:03;100294.91;;;16.70;70.91
60101;BME280;45978;53.646;55.930;2022-08-05T00:52:05;100303.75;;;16.71;71.06
60101;BME280;45978;53.646;55.930;2022-08-05T00:53:06;100291.69;;;16.63;71.39
60101;BME280;45978;53.646;55.930;2022-08-05T00:54:07;100295.13;;;16.66;71.25
60101;BME280;45978;53.646;55.930;2022-08-05T00:55:08;100292.53;;;16.64;71.59
60101;BME280;45978;53.646;55.930;2022-08-05T00:56:10;100301.50;;;16.61;71.76
60101;BME280;45978;53.646;55.930;2022-08-05T00:57:11;100302.53;;;16.59;71.47
60101;BME280;45978;53.646;55.930;2022-08-05T00:58:13;100291.19;;;16.55;71.43
60101;BME280;45978;53.646;55.930;2022-08-05T00:59:19;100291.03;;;16.58;71.80
60101;BME280;45978;53.646;55.930;2022-08-05T01:00:27;100296.28;;;16.60;71.61
60101;BME280;45978;53.646;55.930;2022-08-05T01:01:28;100297.84;;;16.64;71.45
60101;BME280;45978;53.646;55.930;2022-08-05T01:02:31;100298.19;;;16.56;71.21
60101;BME280;45978;53.646;55.930;2022-08-05T01:03:32;100301.91;;;16.52;71.60
60101;BME280;45978;53.646;55.930;2022-08-05T01:04:35;100302.72;;;16.54;71.69
60101;BME280;45978;53.646;55.930;2022-08-05T01:05:37;100297.41;;;16.54;71.38
60101;BME280;45978;53.646;55.930;2022-08-05T01:06:38;100307.16;;;16.54;71.16
60101;BME280;45978;53.646;55.930;2022-08-05T01:07:39;100299.28;;;16.52;71.30
60101;BME280;45978;53.646;55.930;2022-08-05T01:08:42;100294.84;;;16.53;71.64
60101;BME280;45978;53.646;55.930;2022-08-05T01:09:43;100299.28;;;16.52;71.46
60101;BME280;45978;53.646;55.930;2022-08-05T01:10:55;100300.72;;;16.59;71.68
60101;BME280;45978;53.646;55.930;2022-08-05T01:12:03;100305.09;;;16.60;71.23
60101;BME280;45978;53.646;55.930;2022-08-05T01:13:23;100301.63;;;16.58;71.70
60101;BME280;45978;53.646;55.930;2022-08-05T01:14:35;100306.88;;;16.60;71.61
60101;BME280;45978;53.646;55.930;2022-08-05T01:15:41;100303.38;;;16.59;71.42
60101;BME280;45978;53.646;55.930;2022-08-05T01:16:50;100300.06;;;16.54;71.69
60101;BME280;45978;53.646;55.930;2022-08-05T01:17:56;100299.81;;;16.60;71.98
60101;BME280;45978;53.646;55.930;2022-08-05T01:19:15;100310.03;;;16.68;71.75
60101;BME280;45978;53.646;55.930;2022-08-05T01:21:35;100307.03;;;16.76;71.48
60101;BME280;45978;53.646;55.930;2022-08-05T01:25:16;100307.75;;;16.79;71.14
60101;BME280;45978;53.646;55.930;2022-08-05T01:28:37;100308.66;;;17.89;68.83
60101;BME280;45978;53.646;55.930;2022-08-05T01:29:46;100308.16;;;18.49;67.00
60101;BME280;45978;53.646;55.930;2022-08-05T01:30:55;100304.97;;;19.08;65.11
60101;BME280;45978;53.646;55.930;2022-08-05T01:32:02;100308.19;;;19.61;63.41
60101;BME280;45978;53.646;55.930;2022-08-05T01:33:08;100306.13;;;20.10;61.71
60101;BME280;45978;53.646;55.930;2022-08-05T01:34:21;100307.22;;;20.51;59.54
60101;BME280;45978;53.646;55.930;2022-08-05T01:35:26;100296.84;;;20.89;58.47
60101;BME280;45978;53.646;55.930;2022-08-05T01:36:31;100305.56;;;21.33;57.35
60101;BME280;45978;53.646;55.930;2022-08-05T01:37:44;100299.06;;;21.64;55.62
60101;BME280;45978;53.646;55.930;2022-08-05T01:38:47;100304.13;;;22.07;55.19
60101;BME280;45978;53.646;55.930;2022-08-05T01:39:48;100297.53;;;22.39;53.96
60101;BME280;45978;53.646;55.930;2022-08-05T01:40:51;100299.63;;;22.72;52.98
60101;BME280;45978;53.646;55.930;2022-08-05T01:41:55;100286.53;;;23.06;51.58
60101;BME280;45978;53.646;55.930;2022-08-05T01:43:01;100298.53;;;23.48;50.62
60101;BME280;45978;53.646;55.930;2022-08-05T01:44:05;100302.63;;;23.65;49.70
60101;BME280;45978;53.646;55.930;2022-08-05T01:45:09;100305.81;;;23.95;49.62
60101;BME280;45978;53.646;55.930;2022-08-05T01:46:11;100307.91;;;24.14;48.80
60101;BME280;45978;53.646;55.930;2022-08-05T01:47:16;100298.69;;;24.40;47.62
60101;BME280;45978;53.646;55.930;2022-08-05T01:48:19;100294.94;;;24.65;47.18
60101;BME280;45978;53.646;55.930;2022-08-05T01:49:22;100298.69;;;24.85;46.35
60101;BME280;45978;53.646;55.930;2022-08-05T01:50:27;100298.41;;;25.11;45.76
60101;BME280;45978;53.646;55.930;2022-08-05T01:51:30;100300.66;;;25.38;45.07
60101;BME280;45978;53.646;55.930;2022-08-05T01:52:35;100296.25;;;25.37;44.79
60101;BME280;45978;53.646;55.930;2022-08-05T01:53:38;100295.53;;;25.67;44.51
60101;BME280;45978;53.646;55.930;2022-08-05T01:54:44;100292.41;;;26.04;43.54
60101;BME280;45978;53.646;55.930;2022-08-05T01:55:49;100295.78;;;26.27;42.86
60101;BME280;45978;53.646;55.930;2022-08-05T01:56:52;100307.34;;;26.60;42.50
60101;BME280;45978;53.646;55.930;2022-08-05T01:57:58;100303.88;;;26.89;41.67
60101;BME280;45978;53.646;55.930;2022-08-05T01:59:01;100298.97;;;27.14;41.11
60101;BME280;45978;53.646;55.930;2022-08-05T02:00:06;100291.63;;;27.25;40.61
60101;BME280;45978;53.646;55.930;2022-08-05T02:01:12;100292.22;;;27.49;39.89
60101;BME280;45978;53.646;55.930;2022-08-05T02:02:16;100292.06;;;27.70;39.65
60101;BME280;45978;53.646;55.930;2022-08-05T02:03:33;100290.50;;;27.57;39.32
60101;BME280;45978;53.646;55.930;2022-08-05T02:04:36;100285.81;;;27.89;39.50
60101;BME280;45978;53.646;55.930;2022-08-05T02:05:39;100302.22;;;28.24;38.69
60101;BME280;45978;53.646;55.930;2022-08-05T02:06:41;100298.06;;;28.40;38.15
60101;BME280;45978;53.646;55.930;2022-08-05T02:07:42;100295.16;;;28.61;38.00
60101;BME280;45978;53.646;55.930;2022-08-05T02:08:44;100299.78;;;28.78;37.83
60101;BME280;45978;53.646;55.930;2022-08-05T02:09:46;100293.16;;;28.91;37.12
60101;BME280;45978;53.646;55.930;2022-08-05T02:10:50;100289.06;;;29.14;36.38
60101;BME280;45978;53.646;55.930;2022-08-05T02:12:04;100293.53;;;29.23;36.20
60101;BME280;45978;53.646;55.930;2022-08-05T02:13:13;100291.28;;;29.37;36.52
60101;BME280;45978;53.646;55.930;2022-08-05T02:15:02;100299.56;;;29.35;35.38
60101;BME280;45978;53.646;55.930;2022-08-05T02:16:19;100297.94;;;29.78;35.81
60101;BME280;45978;53.646;55.930;2022-08-05T02:17:37;100297.13;;;30.04;34.64
60101;BME280;45978;53.646;55.930;2022-08-05T02:18:49;100298.53;;;30.34;34.10
60101;BME280;45978;53.646;55.930;2022-08-05T02:19:55;100302.41;;;30.66;34.22
60101;BME280;45978;53.646;55.930;2022-08-05T02:21:07;100299.41;;;30.77;33.65
60101;BME280;45978;53.646;55.930;2022-08-05T02:22:22;100298.00;;;30.99;33.37
60101;BME280;45978;53.646;55.930;2022-08-05T02:23:31;100301.78;;;31.23;33.22
60101;BME280;45978;53.646;55.930;2022-08-05T02:24:37;100289.94;;;31.41;32.54
60101;BME280;45978;53.646;55.930;2022-08-05T02:25:43;100296.59;;;31.54;32.84
60101;BME280;45978;53.646;55.930;2022-08-05T02:26:54;100304.91;;;31.61;31.99
60101;BME280;45978;53.646;55.930;2022-08-05T02:27:57;100298.28;;;31.80;32.44
60101;BME280;45978;53.646;55.930;2022-08-05T02:28:59;100300.66;;;31.83;32.06
60101;BME280;45978;53.646;55.930;2022-08-05T02:30:02;100297.44;;;31.88;31.81
60101;BME280;45978;53.646;55.930;2022-08-05T02:31:07;100296.94;;;32.01;31.51
60101;BME280;45978;53.646;55.930;2022-08-05T02:32:10;100297.59;;;32.19;32.00
60101;BME280;45978;53.646;55.930;2022-08-05T02:33:15;100299.25;;;32.36;31.39
60101;BME280;45978;53.646;55.930;2022-08-05T02:34:19;100295.47;;;32.46;31.29
60101;BME280;45978;53.646;55.930;2022-08-05T02:35:22;100302.94;;;32.60;31.13
60101;BME280;45978;53.646;55.930;2022-08-05T02:36:25;100307.31;;;32.69;30.55
60101;BME280;45978;53.646;55.930;2022-08-05T02:37:29;100308.94;;;32.87;30.47
60101;BME280;45978;53.646;55.930;2022-08-05T02:38:34;100307.16;;;33.02;30.00
60101;BME280;45978;53.646;55.930;2022-08-05T02:39:37;100307.22;;;33.25;30.09
60101;BME280;45978;53.646;55.930;2022-08-05T02:40:42;100308.34;;;33.39;29.66
60101;BME280;45978;53.646;55.930;2022-08-05T02:41:46;100300.16;;;33.62;29.52
60101;BME280;45978;53.646;55.930;2022-08-05T02:42:48;100296.03;;;33.66;29.48
60101;BME280;45978;53.646;55.930;2022-08-05T02:43:51;100303.44;;;33.96;29.35
60101;BME280;45978;53.646;55.930;2022-08-05T02:44:57;100303.44;;;33.96;29.54
60101;BME280;45978;53.646;55.930;2022-08-05T02:46:00;100302.03;;;34.00;29.13
60101;BME280;45978;53.646;55.930;2022-08-05T02:47:04;100309.72;;;33.81;28.71
60101;BME280;45978;53.646;55.930;2022-08-05T02:48:09;100311.34;;;33.44;29.93
60101;BME280;45978;53.646;55.930;2022-08-05T02:49:13;100314.59;;;33.71;29.47
60101;BME280;45978;53.646;55.930;2022-08-05T02:50:15;100303.34;;;33.89;29.25
60101;BME280;45978;53.646;55.930;2022-08-05T02:51:18;100305.38;;;34.10;28.94
60101;BME280;45978;53.646;55.930;2022-08-05T02:52:19;100311.25;;;34.22;28.62
60101;BME280;45978;53.646;55.930;2022-08-05T02:53:23;100317.63;;;34.29;28.42
60101;BME280;45978;53.646;55.930;2022-08-05T02:54:25;100313.13;;;34.36;28.76
60101;BME280;45978;53.646;55.930;2022-08-05T02:55:29;100313.13;;;34.51;28.22
60101;BME280;45978;53.646;55.930;2022-08-05T02:56:31;100310.41;;;34.66;28.12
60101;BME280;45978;53.646;55.930;2022-08-05T02:57:34;100315.72;;;35.04;27.92
60101;BME280;45978;53.646;55.930;2022-08-05T02:58:40;100313.06;;;35.10;26.98
60101;BME280;45978;53.646;55.930;2022-08-05T02:59:43;100317.28;;;34.77;27.61
60101;BME280;45978;53.646;55.930;2022-08-05T03:00:47;100317.84;;;34.87;27.64
60101;BME280;45978;53.646;55.930;2022-08-05T03:01:50;100314.22;;;35.16;27.40
60101;BME280;45978;53.646;55.930;2022-08-05T03:02:54;100305.78;;;35.33;26.91
60101;BME280;45978;53.646;55.930;2022-08-05T03:04:00;100311.19;;;35.69;26.90
60101;BME280;45978;53.646;55.930;2022-08-05T03:05:04;100300.72;;;35.73;26.87
60101;BME280;45978;53.646;55.930;2022-08-05T03:06:09;100309.75;;;35.95;26.74
60101;BME280;45978;53.646;55.930;2022-08-05T03:07:12;100310.25;;;36.05;26.81
60101;BME280;45978;53.646;55.930;2022-08-05T03:08:14;100314.25;;;35.59;26.49
60101;BME280;45978;53.646;55.930;2022-08-05T03:09:17;100320.28;;;35.55;26.76
60101;BME280;45978;53.646;55.930;2022-08-05T03:10:18;100312.53;;;35.58;26.64
60101;BME280;45978;53.646;55.930;2022-08-05T03:11:22;100314.19;;;35.74;26.76
60101;BME280;45978;53.646;55.930;2022-08-05T03:12:34;100312.47;;;35.95;26.72
60101;BME280;45978;53.646;55.930;2022-08-05T03:13:38;100316.06;;;36.23;26.04
60101;BME280;45978;53.646;55.930;2022-08-05T03:14:39;100316.09;;;36.02;26.36
60101;BME280;45978;53.646;55.930;2022-08-05T03:15:44;100286.78;;;35.89;26.16
60101;BME280;45978;53.646;55.930;2022-08-05T03:16:46;100304.47;;;36.21;26.21
60101;BME280;45978;53.646;55.930;2022-08-05T03:17:50;100309.56;;;36.24;26.53
60101;BME280;45978;53.646;55.930;2022-08-05T03:18:51;100306.19;;;36.22;26.04
60101;BME280;45978;53.646;55.930;2022-08-05T03:19:52;100307.69;;;36.32;26.09
60101;BME280;45978;53.646;55.930;2022-08-05T03:20:54;100307.94;;;36.37;25.78
60101;BME280;45978;53.646;55.930;2022-08-05T03:21:55;100304.03;;;36.46;25.69
60101;BME280;45978;53.646;55.930;2022-08-05T03:22:57;100312.38;;;36.73;25.80
60101;BME280;45978;53.646;55.930;2022-08-05T03:23:59;100312.22;;;36.46;26.19
60101;BME280;45978;53.646;55.930;2022-08-05T03:25:00;100312.72;;;36.63;25.87
60101;BME280;45978;53.646;55.930;2022-08-05T03:26:05;100316.06;;;36.58;25.91
60101;BME280;45978;53.646;55.930;2022-08-05T03:27:06;100312.25;;;36.94;25.65
60101;BME280;45978;53.646;55.930;2022-08-05T03:28:09;100308.59;;;37.42;25.23
60101;BME280;45978;53.646;55.930;2022-08-05T03:29:10;100307.84;;;37.68;24.74
60101;BME280;45978;53.646;55.930;2022-08-05T03:30:12;100312.06;;;37.84;24.63
60101;BME280;45978;53.646;55.930;2022-08-05T03:31:13;100308.84;;;37.54;24.82
60101;BME280;45978;53.646;55.930;2022-08-05T03:32:15;100318.41;;;37.03;25.06
60101;BME280;45978;53.646;55.930;2022-08-05T03:33:17;100319.06;;;37.12;25.15
60101;BME280;45978;53.646;55.930;2022-08-05T03:34:18;100308.97;;;36.64;25.57
60101;BME280;45978;53.646;55.930;2022-08-05T03:35:20;100325.97;;;36.59;25.66
60101;BME280;45978;53.646;55.930;2022-08-05T03:36:22;100314.81;;;36.61;25.62
60101;BME280;45978;53.646;55.930;2022-08-05T03:37:24;100315.88;;;37.01;25.11
60101;BME280;45978;53.646;55.930;2022-08-05T03:38:26;100318.94;;;37.27;24.66
60101;BME280;45978;53.646;55.930;2022-08-05T03:39:27;100314.38;;;37.60;24.72
60101;BME280;45978;53.646;55.930;2022-08-05T03:40:28;100316.69;;;37.90;24.74
60101;BME280;45978;53.646;55.930;2022-08-05T03:41:30;100316.59;;;37.30;24.55
60101;BME280;45978;53.646;55.930;2022-08-05T03:42:31;100309.09;;;37.65;24.33
60101;BME280;45978;53.646;55.930;2022-08-05T03:43:32;100309.31;;;37.97;24.29
60101;BME280;45978;53.646;55.930;2022-08-05T03:44:33;100312.47;;;38.21;24.16
60101;BME280;45978;53.646;55.930;2022-08-05T03:45:37;100316.44;;;38.45;23.62
60101;BME280;45978;53.646;55.930;2022-08-05T03:46:39;100311.06;;;38.77;23.40
60101;BME280;45978;53.646;55.930;2022-08-05T03:47:40;100321.78;;;38.98;23.43
60101;BME280;45978;53.646;55.930;2022-08-05T03:48:41;100311.38;;;39.07;23.44
60101;BME280;45978;53.646;55.930;2022-08-05T03:49:42;100313.56;;;39.30;23.03
60101;BME280;45978;53.646;55.930;2022-08-05T03:50:54;100315.44;;;38.91;22.53
60101;BME280;45978;53.646;55.930;2022-08-05T03:52:01;100322.25;;;38.75;22.04
60101;BME280;45978;53.646;55.930;2022-08-05T03:53:11;100311.56;;;38.60;22.64
60101;BME280;45978;53.646;55.930;2022-08-05T03:54:20;100319.16;;;38.65;22.91
60101;BME280;45978;53.646;55.930;2022-08-05T03:55:31;100316.56;;;38.77;22.35
60101;BME280;45978;53.646;55.930;2022-08-05T03:56:43;100317.84;;;38.74;22.36
60101;BME280;45978;53.646;55.930;2022-08-05T03:57:47;100311.94;;;38.71;22.60
60101;BME280;45978;53.646;55.930;2022-08-05T03:58:54;100319.00;;;38.92;21.86
60101;BME280;45978;53.646;55.930;2022-08-05T04:00:06;100314.19;;;38.87;21.73
60101;BME280;45978;53.646;55.930;2022-08-05T04:01:13;100323.94;;;38.83;21.68
60101;BME280;45978;53.646;55.930;2022-08-05T04:02:16;100322.97;;;39.16;21.80
60101;BME280;45978;53.646;55.930;2022-08-05T04:03:19;100328.53;;;38.89;22.29
60101;BME280;45978;53.646;55.930;2022-08-05T04:04:22;100320.28;;;39.03;21.93
60101;BME280;45978;53.646;55.930;2022-08-05T04:05:30;100322.25;;;38.75;22.20
60101;BME280;45978;53.646;55.930;2022-08-05T04:06:33;100325.38;;;38.92;22.38
60101;BME280;45978;53.646;55.930;2022-08-05T04:07:37;100312.66;;;39.05;22.00
60101;BME280;45978;53.646;55.930;2022-08-05T04:08:39;100331.97;;;39.30;21.90
60101;BME280;45978;53.646;55.930;2022-08-05T04:09:40;100325.13;;;39.39;21.38
60101;BME280;45978;53.646;55.930;2022-08-05T04:10:42;100313.75;;;39.67;21.10
60101;BME280;45978;53.646;55.930;2022-08-05T04:11:45;100315.81;;;39.72;20.90
60101;BME280;45978;53.646;55.930;2022-08-05T04:12:48;100322.72;;;39.88;20.97
60101;BME280;45978;53.646;55.930;2022-08-05T04:13:49;100313.22;;;40.09;20.57
60101;BME280;45978;53.646;55.930;2022-08-05T04:14:54;100308.78;;;40.51;20.85
60101;BME280;45978;53.646;55.930;2022-08-05T04:15:56;100312.88;;;40.61;20.73
60101;BME280;45978;53.646;55.930;2022-08-05T04:16:58;100317.81;;;39.90;20.97
60101;BME280;45978;53.646;55.930;2022-08-05T04:18:04;100312.47;;;38.99;21.54
60101;BME280;45978;53.646;55.930;2022-08-05T04:19:05;100313.28;;;39.07;22.14
60101;BME280;45978;53.646;55.930;2022-08-05T04:20:07;100320.75;;;39.31;21.75
60101;BME280;45978;53.646;55.930;2022-08-05T04:21:17;100309.66;;;39.51;21.44
60101;BME280;45978;53.646;55.930;2022-08-05T04:22:18;100314.31;;;39.76;20.96
60101;BME280;45978;53.646;55.930;2022-08-05T04:23:22;100317.34;;;39.68;20.78
60101;BME280;45978;53.646;55.930;2022-08-05T04:24:23;100306.00;;;39.57;21.17
60101;BME280;45978;53.646;55.930;2022-08-05T04:25:24;100311.72;;;38.72;21.78
60101;BME280;45978;53.646;55.930;2022-08-05T04:26:27;100314.38;;;38.92;21.49
60101;BME280;45978;53.646;55.930;2022-08-05T04:27:28;100312.81;;;39.16;21.21
60101;BME280;45978;53.646;55.930;2022-08-05T04:28:29;100307.13;;;39.50;20.70
60101;BME280;45978;53.646;55.930;2022-08-05T04:29:32;100303.44;;;39.88;20.95
60101;BME280;45978;53.646;55.930;2022-08-05T04:30:34;100303.13;;;40.03;20.56
60101;BME280;45978;53.646;55.930;2022-08-05T04:31:36;100300.16;;;40.04;20.96
60101;BME280;45978;53.646;55.930;2022-08-05T04:32:37;100303.00;;;40.16;20.50
60101;BME280;45978;53.646;55.930;2022-08-05T04:33:38;100304.75;;;40.29;20.04
60101;BME280;45978;53.646;55.930;2022-08-05T04:34:40;100306.06;;;40.26;19.31
60101;BME280;45978;53.646;55.930;2022-08-05T04:35:44;100312.03;;;39.98;19.58
60101;BME280;45978;53.646;55.930;2022-08-05T04:36:45;100305.66;;;39.40;20.03
60101;BME280;45978;53.646;55.930;2022-08-05T04:37:46;100305.59;;;39.22;20.33
60101;BME280;45978;53.646;55.930;2022-08-05T04:38:47;100309.84;;;39.18;20.22
60101;BME280;45978;53.646;55.930;2022-08-05T04:39:48;100307.72;;;39.20;20.20
60101;BME280;45978;53.646;55.930;2022-08-05T04:40:49;100304.97;;;39.20;19.82
60101;BME280;45978;53.646;55.930;2022-08-05T04:41:51;100310.13;;;39.03;19.64
60101;BME280;45978;53.646;55.930;2022-08-05T04:42:52;100308.50;;;39.27;19.36
60101;BME280;45978;53.646;55.930;2022-08-05T04:43:55;100308.13;;;38.78;20.42
60101;BME280;45978;53.646;55.930;2022-08-05T04:44:56;100312.88;;;39.03;20.45
60101;BME280;45978;53.646;55.930;2022-08-05T04:45:57;100308.88;;;39.37;20.30
60101;BME280;45978;53.646;55.930;2022-08-05T04:46:58;100311.38;;;39.46;20.37
60101;BME280;45978;53.646;55.930;2022-08-05T04:48:08;100307.44;;;39.67;20.10
60101;BME280;45978;53.646;55.930;2022-08-05T04:49:09;100293.25;;;39.95;20.20
60101;BME280;45978;53.646;55.930;2022-08-05T04:50:12;100305.19;;;40.07;19.73
60101;BME280;45978;53.646;55.930;2022-08-05T04:51:13;100315.22;;;39.38;20.11
60101;BME280;45978;53.646;55.930;2022-08-05T04:52:14;100303.00;;;39.27;20.08
60101;BME280;45978;53.646;55.930;2022-08-05T04:53:17;100311.22;;;39.34;20.65
60101;BME280;45978;53.646;55.930;2022-08-05T04:54:19;100301.19;;;39.53;20.55
60101;BME280;45978;53.646;55.930;2022-08-05T04:55:21;100307.69;;;39.58;20.43
60101;BME280;45978;53.646;55.930;2022-08-05T04:56:22;100305.69;;;39.97;19.97
60101;BME280;45978;53.646;55.930;2022-08-05T04:57:24;100300.66;;;39.94;20.03
60101;BME280;45978;53.646;55.930;2022-08-05T04:58:26;100301.59;;;40.07;20.19
60101;BME280;45978;53.646;55.930;2022-08-05T04:59:27;100295.63;;;40.10;20.00
60101;BME280;45978;53.646;55.930;2022-08-05T05:00:28;100300.06;;;40.11;20.35
60101;BME280;45978;53.646;55.930;2022-08-05T05:01:29;100302.44;;;39.57;20.58
60101;BME280;45978;53.646;55.930;2022-08-05T05:02:30;100312.97;;;39.60;20.87
60101;BME280;45978;53.646;55.930;2022-08-05T05:03:31;100306.13;;;39.69;20.76
60101;BME280;45978;53.646;55.930;2022-08-05T05:04:33;100311.75;;;39.81;20.55
60101;BME280;45978;53.646;55.930;2022-08-05T05:05:34;100299.06;;;40.05;20.37
60101;BME280;45978;53.646;55.930;2022-08-05T05:06:36;100299.75;;;40.19;20.04
60101;BME280;45978;53.646;55.930;2022-08-05T05:07:37;100297.75;;;40.33;19.74
60101;BME280;45978;53.646;55.930;2022-08-05T05:08:39;100300.94;;;40.30;20.08
60101;BME280;45978;53.646;55.930;2022-08-05T05:09:43;100301.41;;;40.45;20.24
60101;BME280;45978;53.646;55.930;2022-08-05T05:10:46;100303.31;;;40.45;20.04
60101;BME280;45978;53.646;55.930;2022-08-05T05:11:47;100305.69;;;40.41;20.04
60101;BME280;45978;53.646;55.930;2022-08-05T05:12:48;100301.84;;;40.24;19.68
60101;BME280;45978;53.646;55.930;2022-08-05T05:13:50;100303.91;;;40.28;19.67
60101;BME280;45978;53.646;55.930;2022-08-05T05:14:51;100305.06;;;40.39;19.72
60101;BME280;45978;53.646;55.930;2022-08-05T05:15:52;100300.59;;;40.19;19.47
60101;BME280;45978;53.646;55.930;2022-08-05T05:16:53;100305.34;;;40.31;19.88
60101;BME280;45978;53.646;55.930;2022-08-05T05:17:54;100289.56;;;40.45;19.60
60101;BME280;45978;53.646;55.930;2022-08-05T05:18:55;100300.34;;;40.46;19.34
60101;BME280;45978;53.646;55.930;2022-08-05T05:19:56;100291.06;;;40.59;19.46
60101;BME280;45978;53.646;55.930;2022-08-05T05:20:58;100303.19;;;40.58;19.45
60101;BME280;45978;53.646;55.930;2022-08-05T05:21:59;100293.81;;;40.22;19.63
60101;BME280;45978;53.646;55.930;2022-08-05T05:23:01;100292.19;;;40.40;19.87
60101;BME280;45978;53.646;55.930;2022-08-05T05:24:05;100292.16;;;40.58;19.71
60101;BME280;45978;53.646;55.930;2022-08-05T05:25:07;100286.19;;;40.61;19.27
60101;BME280;45978;53.646;55.930;2022-08-05T05:26:09;100298.97;;;40.55;19.42
60101;BME280;45978;53.646;55.930;2022-08-05T05:27:10;100296.03;;;40.69;19.78
60101;BME280;45978;53.646;55.930;2022-08-05T05:28:11;100295.97;;;40.57;19.49
60101;BME280;45978;53.646;55.930;2022-08-05T05:29:13;100289.50;;;40.51;19.52
60101;BME280;45978;53.646;55.930;2022-08-05T05:30:15;100297.69;;;40.40;19.29
60101;BME280;45978;53.646;55.930;2022-08-05T05:31:17;100288.81;;;40.37;19.67
60101;BME280;45978;53.646;55.930;2022-08-05T05:32:18;100288.25;;;40.47;19.50
60101;BME280;45978;53.646;55.930;2022-08-05T05:33:19;100299.81;;;40.56;19.39
60101;BME280;45978;53.646;55.930;2022-08-05T05:34:20;100286.75;;;40.51;19.46